createdAt,value
2023-04-03T00:00:25.497Z,21.30
2023-04-03T00:03:10.737Z,21.30
2023-04-03T00:05:56.227Z,21.30
2023-04-03T00:08:42.099Z,21.29
2023-04-03T00:11:27.326Z,21.30
2023-04-03T00:14:12.600Z,21.30
2023-04-03T00:16:57.871Z,21.30
2023-04-03T00:19:43.192Z,21.29
2023-04-03T00:22:29.701Z,21.30
2023-04-03T00:25:15.286Z,21.29
2023-04-03T00:28:01.662Z,21.29
2023-04-03T00:30:49.216Z,21.30
2023-04-03T00:33:34.750Z,21.31
2023-04-03T00:36:20.214Z,21.29
2023-04-03T00:39:06.864Z,21.30
2023-04-03T00:41:52.074Z,21.31
2023-04-03T00:44:37.826Z,21.31
2023-04-03T00:47:24.212Z,21.30
2023-04-03T00:50:10.085Z,21.31
2023-04-03T00:52:56.361Z,21.31
2023-04-03T00:55:43.937Z,21.31
2023-04-03T00:58:40.896Z,21.31
2023-04-03T01:01:29.006Z,21.30
2023-04-03T01:04:31.750Z,21.30
2023-04-03T01:07:28.915Z,21.30
2023-04-03T01:10:17.084Z,21.29
2023-04-03T01:13:02.772Z,21.29
2023-04-03T01:15:48.293Z,21.29
2023-04-03T01:18:36.865Z,21.29
2023-04-03T01:21:59.967Z,21.28
2023-04-03T01:24:47.711Z,21.29
2023-04-03T01:27:32.798Z,21.29
2023-04-03T01:30:20.325Z,21.28
2023-04-03T01:33:05.862Z,21.28
2023-04-03T01:35:51.710Z,21.30
2023-04-03T01:38:37.431Z,21.28
2023-04-03T01:41:22.993Z,21.29
2023-04-03T01:44:11.012Z,21.28
2023-04-03T01:46:56.384Z,21.28
2023-04-03T01:49:43.129Z,21.28
2023-04-03T01:52:28.919Z,21.29
2023-04-03T01:55:14.364Z,21.28
2023-04-03T01:57:59.571Z,21.28
2023-04-03T02:00:44.937Z,21.29
2023-04-03T02:03:30.681Z,21.29
2023-04-03T02:06:15.992Z,21.29
2023-04-03T02:09:01.622Z,21.28
2023-04-03T02:11:46.894Z,21.27
2023-04-03T02:14:32.749Z,21.27
2023-04-03T02:17:18.545Z,21.27
2023-04-03T02:20:04.875Z,21.27
2023-04-03T02:22:52.204Z,21.27
2023-04-03T02:25:38.814Z,21.27
2023-04-03T02:28:24.303Z,21.27
2023-04-03T02:31:11.637Z,21.28
2023-04-03T02:33:59.152Z,21.27
2023-04-03T02:36:45.217Z,21.27
2023-04-03T02:39:32.207Z,21.27
2023-04-03T02:42:18.476Z,21.25
2023-04-03T02:45:04.420Z,21.25
2023-04-03T02:47:50.584Z,21.25
2023-04-03T02:50:36.147Z,21.25
2023-04-03T02:53:21.532Z,21.25
2023-04-03T02:56:08.990Z,21.27
2023-04-03T02:58:54.229Z,21.26
2023-04-03T03:01:40.031Z,21.26
2023-04-03T03:04:25.444Z,21.24
2023-04-03T03:07:11.192Z,21.24
2023-04-03T03:09:56.525Z,21.23
2023-04-03T03:12:41.868Z,21.23
2023-04-03T03:15:27.545Z,21.23
2023-04-03T03:18:12.758Z,21.22
2023-04-03T03:21:00.767Z,21.22
2023-04-03T03:23:46.691Z,21.23
2023-04-03T03:26:31.864Z,21.21
2023-04-03T03:29:17.214Z,21.19
2023-04-03T03:32:03.629Z,21.20
2023-04-03T03:34:48.812Z,21.18
2023-04-03T03:37:34.063Z,21.18
2023-04-03T03:40:19.320Z,21.17
2023-04-03T03:43:04.681Z,21.17
2023-04-03T03:45:53.958Z,21.16
2023-04-03T03:48:41.304Z,21.17
2023-04-03T03:51:26.638Z,21.16
2023-04-03T03:54:12.426Z,21.15
2023-04-03T03:56:57.749Z,21.15
2023-04-03T03:59:45.314Z,21.14
2023-04-03T04:02:31.586Z,21.13
2023-04-03T04:05:17.289Z,21.10
2023-04-03T04:08:02.537Z,21.10
2023-04-03T04:10:47.726Z,21.12
2023-04-03T04:13:35.069Z,21.10
2023-04-03T04:16:20.961Z,21.13
2023-04-03T04:19:08.420Z,21.13
2023-04-03T04:21:55.800Z,21.13
2023-04-03T04:24:41.719Z,21.13
2023-04-03T04:27:27.401Z,21.15
2023-04-03T04:30:13.861Z,21.14
2023-04-03T04:33:00.065Z,21.16
2023-04-03T04:35:49.600Z,21.16
2023-04-03T04:38:37.036Z,21.17
2023-04-03T04:41:25.932Z,21.21
2023-04-03T04:44:11.503Z,21.25
2023-04-03T04:46:57.713Z,21.27
2023-04-03T04:49:43.412Z,21.32
2023-04-03T04:52:29.377Z,21.33
2023-04-03T04:55:14.698Z,21.38
2023-04-03T04:57:59.973Z,21.42
2023-04-03T05:00:45.167Z,21.41
2023-04-03T05:03:31.474Z,21.39
2023-04-03T05:06:17.376Z,21.38
2023-04-03T05:09:03.311Z,21.38
2023-04-03T05:11:50.525Z,21.42
2023-04-03T05:14:38.260Z,21.44
2023-04-03T05:17:26.337Z,21.45
2023-04-03T05:20:15.144Z,21.44
2023-04-03T05:23:02.477Z,21.47
2023-04-03T05:25:49.785Z,21.48
2023-04-03T05:28:37.499Z,21.51
2023-04-03T05:31:24.406Z,21.52
2023-04-03T05:34:11.336Z,21.53
2023-04-03T05:36:58.452Z,21.55
2023-04-03T05:39:46.004Z,21.57
2023-04-03T05:42:32.293Z,21.53
2023-04-03T05:45:18.329Z,21.54
2023-04-03T05:48:04.526Z,21.54
2023-04-03T05:50:50.637Z,21.56
2023-04-03T05:53:42.215Z,21.61
2023-04-03T05:56:27.981Z,21.63
2023-04-03T05:59:13.294Z,21.64
2023-04-03T06:01:58.934Z,21.68
2023-04-03T06:04:45.108Z,21.69
2023-04-03T06:07:31.757Z,21.73
2023-04-03T06:10:17.461Z,21.75
2023-04-03T06:13:04.075Z,21.76
2023-04-03T06:15:49.610Z,21.75
2023-04-03T06:18:35.643Z,21.77
2023-04-03T06:21:21.207Z,21.80
2023-04-03T06:24:07.106Z,21.81
2023-04-03T06:26:53.737Z,21.80
2023-04-03T06:29:39.339Z,21.83
2023-04-03T06:32:24.877Z,21.79
2023-04-03T06:35:10.376Z,21.81
2023-04-03T06:37:55.814Z,21.77
2023-04-03T06:40:41.208Z,21.76
2023-04-03T06:43:27.113Z,21.74
2023-04-03T06:46:15.759Z,21.72
2023-04-03T06:49:01.411Z,21.69
2023-04-03T06:51:46.672Z,21.68
2023-04-03T06:54:32.475Z,21.66
2023-04-03T06:57:17.861Z,21.64
2023-04-03T07:00:05.316Z,21.61
2023-04-03T07:02:50.807Z,21.56
2023-04-03T07:05:36.160Z,21.54
2023-04-03T07:08:22.247Z,21.51
2023-04-03T07:11:07.614Z,21.48
2023-04-03T07:13:53.644Z,21.45
2023-04-03T07:16:41.029Z,21.45
2023-04-03T07:19:29.103Z,21.43
2023-04-03T07:22:14.508Z,21.40
2023-04-03T07:25:00.198Z,21.36
2023-04-03T07:27:45.392Z,21.35
2023-04-03T07:30:30.729Z,21.34
2023-04-03T07:33:17.333Z,21.31
2023-04-03T07:36:02.966Z,21.29
2023-04-03T07:38:48.221Z,21.28
2023-04-03T07:41:33.721Z,21.26
2023-04-03T07:44:19.040Z,21.25
2023-04-03T07:47:04.360Z,21.22
2023-04-03T07:49:49.605Z,21.22
2023-04-03T07:52:34.903Z,21.22
2023-04-03T07:55:20.265Z,21.22
2023-04-03T07:58:05.809Z,21.20
2023-04-03T08:00:51.484Z,21.19
2023-04-03T08:03:38.413Z,21.18
2023-04-03T08:06:37.454Z,21.16
2023-04-03T08:09:29.172Z,21.15
2023-04-03T08:12:15.833Z,21.14
2023-04-03T08:15:02.240Z,21.14
2023-04-03T08:17:47.718Z,21.14
2023-04-03T08:20:32.868Z,21.13
2023-04-03T08:23:20.095Z,21.13
2023-04-03T08:26:17.215Z,21.10
2023-04-03T08:29:03.296Z,21.09
2023-04-03T08:31:50.702Z,21.11
2023-04-03T08:34:39.567Z,21.09
2023-04-03T08:37:24.853Z,21.07
2023-04-03T08:40:16.923Z,21.06
2023-04-03T08:43:05.578Z,21.07
2023-04-03T08:46:02.133Z,21.06
2023-04-03T08:48:50.107Z,21.06
2023-04-03T08:51:35.796Z,21.06
2023-04-03T08:54:43.575Z,21.04
2023-04-03T08:57:36.795Z,21.03
2023-04-03T09:00:25.394Z,21.04
2023-04-03T09:03:15.136Z,21.02
2023-04-03T09:06:14.665Z,21.02
2023-04-03T09:09:22.285Z,21.01
2023-04-03T09:12:13.996Z,21.01
2023-04-03T09:15:12.193Z,21.02
2023-04-03T09:18:06.677Z,21.00
2023-04-03T09:21:14.237Z,21.00
2023-04-03T09:24:02.338Z,21.00
2023-04-03T09:27:03.455Z,20.99
2023-04-03T09:29:54.016Z,20.99
2023-04-03T09:32:39.689Z,20.98
2023-04-03T09:35:32.812Z,21.00
2023-04-03T09:38:29.772Z,21.00
2023-04-03T09:41:24.820Z,21.00
2023-04-03T09:44:23.763Z,21.01
2023-04-03T09:47:26.478Z,21.00
2023-04-03T09:50:14.987Z,21.01
2023-04-03T09:53:06.096Z,20.99
2023-04-03T09:55:51.238Z,21.01
2023-04-03T09:58:50.542Z,21.02
2023-04-03T10:01:43.137Z,21.03
2023-04-03T10:04:40.173Z,21.02
2023-04-03T10:07:38.526Z,21.04
2023-04-03T10:10:26.505Z,21.03
2023-04-03T10:13:21.351Z,21.00
2023-04-03T10:16:18.583Z,20.99
2023-04-03T10:19:03.612Z,21.00
2023-04-03T10:21:59.874Z,21.00
2023-04-03T10:25:15.764Z,20.99
2023-04-03T10:28:20.540Z,21.00
2023-04-03T10:31:26.380Z,21.00
2023-04-03T10:34:42.368Z,21.02
2023-04-03T10:37:38.447Z,21.03
2023-04-03T10:40:48.473Z,21.03
2023-04-03T10:44:00.273Z,21.03
2023-04-03T10:46:50.054Z,21.03
2023-04-03T10:50:01.542Z,21.02
2023-04-03T10:53:12.031Z,21.03
2023-04-03T10:56:29.689Z,21.02
2023-04-03T10:59:47.116Z,21.02
2023-04-03T11:02:58.637Z,21.02
2023-04-03T11:05:46.047Z,21.02
2023-04-03T11:08:52.389Z,21.00
2023-04-03T11:11:41.123Z,21.01
2023-04-03T11:14:36.058Z,21.01
2023-04-03T11:17:26.046Z,21.01
2023-04-03T11:20:28.373Z,21.02
2023-04-03T11:23:30.391Z,21.01
2023-04-03T11:26:27.371Z,21.02
2023-04-03T11:29:34.477Z,21.01
2023-04-03T11:32:41.662Z,21.00
2023-04-03T11:35:28.130Z,20.99
2023-04-03T11:38:27.864Z,21.01
2023-04-03T11:41:14.909Z,21.01
2023-04-03T11:44:03.409Z,21.00
2023-04-03T11:46:57.279Z,21.01
2023-04-03T11:50:02.092Z,21.00
2023-04-03T11:52:50.554Z,21.00
2023-04-03T11:55:36.920Z,21.00
2023-04-03T11:58:32.869Z,21.02
2023-04-03T12:01:43.634Z,21.01
2023-04-03T12:04:30.055Z,21.00
2023-04-03T12:07:20.030Z,21.00
2023-04-03T12:10:30.412Z,21.00
2023-04-03T12:13:17.677Z,21.02
2023-04-03T12:16:05.939Z,21.03
2023-04-03T12:18:54.252Z,21.04
2023-04-03T12:21:53.046Z,21.03
2023-04-03T12:24:50.227Z,21.03
2023-04-03T12:27:41.889Z,21.03
2023-04-03T12:30:30.417Z,21.02
2023-04-03T12:33:30.812Z,21.01
2023-04-03T12:36:27.847Z,20.99
2023-04-03T12:39:43.855Z,21.00
2023-04-03T12:42:48.271Z,20.98
2023-04-03T12:45:52.912Z,20.97
2023-04-03T12:48:55.963Z,20.96
2023-04-03T12:51:44.590Z,20.96
2023-04-03T12:54:35.805Z,20.93
2023-04-03T12:57:25.284Z,20.92
2023-04-03T13:00:31.418Z,20.93
2023-04-03T13:03:28.063Z,20.92
2023-04-03T13:06:26.202Z,20.92
2023-04-03T13:09:30.394Z,20.93
2023-04-03T13:12:17.963Z,20.96
2023-04-03T13:15:15.560Z,20.92
2023-04-03T13:18:01.620Z,20.91
2023-04-03T13:20:49.588Z,20.93
2023-04-03T13:23:39.936Z,20.93
2023-04-03T13:26:32.166Z,20.92
2023-04-03T13:29:32.518Z,20.92
2023-04-03T13:32:22.761Z,20.92
2023-04-03T13:35:26.488Z,20.93
2023-04-03T13:38:17.957Z,20.93
2023-04-03T13:41:25.064Z,20.94
2023-04-03T13:44:40.617Z,20.96
2023-04-03T13:47:26.281Z,20.99
2023-04-03T13:50:30.352Z,21.00
2023-04-03T13:53:15.986Z,21.04
2023-04-03T13:56:04.732Z,21.06
2023-04-03T13:59:22.118Z,21.13
2023-04-03T14:02:17.461Z,21.22
2023-04-03T14:05:04.462Z,21.25
2023-04-03T14:07:52.894Z,21.28
2023-04-03T14:10:39.663Z,21.33
2023-04-03T14:13:25.595Z,21.37
2023-04-03T14:16:18.115Z,21.43
2023-04-03T14:19:04.205Z,21.45
2023-04-03T14:21:52.993Z,21.46
2023-04-03T14:24:41.312Z,21.50
2023-04-03T14:27:30.967Z,21.52
2023-04-03T14:30:31.170Z,21.55
2023-04-03T14:33:22.640Z,21.57
2023-04-03T14:36:13.403Z,21.59
2023-04-03T14:39:00.641Z,21.60
2023-04-03T14:41:46.774Z,21.62
2023-04-03T14:44:32.576Z,21.62
2023-04-03T14:47:30.634Z,21.63
2023-04-03T14:50:22.123Z,21.65
2023-04-03T14:53:07.768Z,21.65
2023-04-03T14:55:53.543Z,21.71
2023-04-03T14:58:39.239Z,21.68
2023-04-03T15:01:31.211Z,21.66
2023-04-03T15:04:19.675Z,21.66
2023-04-03T15:07:05.631Z,21.64
2023-04-03T15:10:06.441Z,21.66
2023-04-03T15:12:55.261Z,21.66
2023-04-03T15:15:41.306Z,21.65
2023-04-03T15:18:30.986Z,21.66
2023-04-03T15:21:16.649Z,21.66
2023-04-03T15:24:31.098Z,21.71
2023-04-03T15:27:17.969Z,21.72
2023-04-03T15:30:08.293Z,21.71
2023-04-03T15:32:54.310Z,21.74
2023-04-03T15:35:40.208Z,21.76
2023-04-03T15:38:26.062Z,21.78
2023-04-03T15:41:11.693Z,21.82
2023-04-03T15:43:57.597Z,21.83
2023-04-03T15:46:43.055Z,21.81
2023-04-03T15:49:30.881Z,21.81
2023-04-03T15:52:17.699Z,21.80
2023-04-03T15:55:04.342Z,21.82
2023-04-03T15:57:49.776Z,21.81
2023-04-03T16:00:36.653Z,21.79
2023-04-03T16:03:23.688Z,21.79
2023-04-03T16:06:08.833Z,21.81
2023-04-03T16:08:58.048Z,21.78
2023-04-03T16:11:44.445Z,21.78
2023-04-03T16:14:31.345Z,21.76
2023-04-03T16:17:16.670Z,21.77
2023-04-03T16:20:03.498Z,21.75
2023-04-03T16:22:49.125Z,21.77
2023-04-03T16:25:34.980Z,21.78
2023-04-03T16:28:20.771Z,21.77
2023-04-03T16:31:07.432Z,21.79
2023-04-03T16:33:53.537Z,21.78
2023-04-03T16:36:40.663Z,21.78
2023-04-03T16:39:25.932Z,21.80
2023-04-03T16:42:11.562Z,21.83
2023-04-03T16:44:56.936Z,21.83
2023-04-03T16:47:42.388Z,21.84
2023-04-03T16:50:27.685Z,21.86
2023-04-03T16:53:13.049Z,21.85
2023-04-03T16:55:59.995Z,21.88
2023-04-03T16:58:45.773Z,21.88
2023-04-03T17:01:31.409Z,21.85
2023-04-03T17:04:17.143Z,21.87
2023-04-03T17:07:06.975Z,21.90
2023-04-03T17:09:54.470Z,21.89
2023-04-03T17:12:40.097Z,21.92
2023-04-03T17:15:26.555Z,21.92
2023-04-03T17:18:13.099Z,21.91
2023-04-03T17:20:59.298Z,21.92
2023-04-03T17:23:50.226Z,21.94
2023-04-03T17:26:37.729Z,21.98
2023-04-03T17:29:23.257Z,21.96
2023-04-03T17:32:09.376Z,21.96
2023-04-03T17:34:55.426Z,21.94
2023-04-03T17:37:40.708Z,21.94
2023-04-03T17:40:26.122Z,21.95
2023-04-03T17:43:12.437Z,21.94
2023-04-03T17:46:11.302Z,21.94
2023-04-03T17:48:59.374Z,21.92
2023-04-03T17:52:05.618Z,21.95
2023-04-03T17:54:51.196Z,21.94
2023-04-03T17:57:36.704Z,21.96
2023-04-03T18:00:22.015Z,21.95
2023-04-03T18:03:07.559Z,21.93
2023-04-03T18:05:54.980Z,21.92
2023-04-03T18:08:53.254Z,21.90
2023-04-03T18:11:38.847Z,21.90
2023-04-03T18:14:27.024Z,21.86
2023-04-03T18:17:13.826Z,21.88
2023-04-03T18:19:59.350Z,21.88
2023-04-03T18:22:44.781Z,21.87
2023-04-03T18:28:22.657Z,21.82
2023-04-03T18:31:10.924Z,21.80
2023-04-03T18:33:59.086Z,21.85
2023-04-03T18:36:44.987Z,21.83
2023-04-03T18:39:30.558Z,21.83
2023-04-03T18:42:19.670Z,21.82
2023-04-03T18:45:06.302Z,21.81
2023-04-03T18:47:52.249Z,21.78
2023-04-03T18:50:38.025Z,21.81
2023-04-03T18:53:23.860Z,21.80
2023-04-03T18:56:09.118Z,21.78
2023-04-03T18:58:54.524Z,21.75
2023-04-03T19:01:40.441Z,21.72
2023-04-03T19:04:27.382Z,21.72
2023-04-03T19:07:12.983Z,21.71
2023-04-03T19:09:59.186Z,21.69
2023-04-03T19:12:45.478Z,21.68
2023-04-03T19:15:31.852Z,21.66
2023-04-03T19:18:17.338Z,21.64
2023-04-03T19:21:02.591Z,21.63
2023-04-03T19:23:48.880Z,21.62
2023-04-03T19:26:34.301Z,21.58
2023-04-03T19:29:19.716Z,21.55
2023-04-03T19:32:05.376Z,21.52
2023-04-03T19:34:51.154Z,21.51
2023-04-03T19:37:36.474Z,21.50
2023-04-03T19:40:21.825Z,21.46
2023-04-03T19:43:07.808Z,21.45
2023-04-03T19:45:53.310Z,21.44
2023-04-03T19:48:39.008Z,21.42
2023-04-03T19:51:24.351Z,21.41
2023-04-03T19:54:09.631Z,21.40
2023-04-03T19:56:55.228Z,21.40
2023-04-03T19:59:40.676Z,21.38
2023-04-03T20:02:26.169Z,21.38
2023-04-03T20:05:11.778Z,21.38
2023-04-03T20:07:57.438Z,21.38
2023-04-03T20:10:43.010Z,21.36
2023-04-03T20:13:28.383Z,21.34
2023-04-03T20:16:14.178Z,21.31
2023-04-03T20:19:00.274Z,21.31
2023-04-03T20:21:45.348Z,21.29
2023-04-03T20:24:31.572Z,21.27
2023-04-03T20:27:17.873Z,21.28
2023-04-03T20:30:09.054Z,21.25
2023-04-03T20:32:54.425Z,21.23
2023-04-03T20:35:39.725Z,21.22
2023-04-03T20:38:25.380Z,21.22
2023-04-03T20:41:11.071Z,21.21
2023-04-03T20:43:56.173Z,21.20
2023-04-03T20:46:52.122Z,21.16
2023-04-03T20:49:37.836Z,21.14
2023-04-03T20:52:23.193Z,21.13
2023-04-03T20:55:09.053Z,21.13
2023-04-03T20:57:58.374Z,21.13
2023-04-03T21:00:43.884Z,21.14
2023-04-03T21:03:30.635Z,21.12
2023-04-03T21:06:55.444Z,21.13
2023-04-03T21:10:18.590Z,21.13
2023-04-03T21:13:41.410Z,21.12
2023-04-03T21:16:27.251Z,21.11
2023-04-03T21:19:13.746Z,21.12
2023-04-03T21:22:00.598Z,21.12
2023-04-03T21:24:46.121Z,21.10
2023-04-03T21:27:32.071Z,21.12
2023-04-03T21:30:17.745Z,21.10
2023-04-03T21:33:02.960Z,21.11
2023-04-03T21:35:48.645Z,21.11
2023-04-03T21:38:36.071Z,21.10
2023-04-03T21:41:22.060Z,21.10
2023-04-03T21:44:07.575Z,21.10
2023-04-03T21:46:56.183Z,21.10
2023-04-03T21:49:41.660Z,21.10
2023-04-03T21:52:27.442Z,21.10
2023-04-03T21:55:15.391Z,21.09
2023-04-03T21:58:01.087Z,21.09
2023-04-03T22:00:46.451Z,21.09
2023-04-03T22:03:34.797Z,21.10
2023-04-03T22:06:20.225Z,21.09
2023-04-03T22:09:05.587Z,21.09
2023-04-03T22:11:51.534Z,21.09
2023-04-03T22:14:37.234Z,21.08
2023-04-03T22:17:22.800Z,21.08
2023-04-03T22:20:09.057Z,21.08
2023-04-03T22:22:54.433Z,21.09
2023-04-03T22:25:39.976Z,21.08
2023-04-03T22:28:27.126Z,21.09
2023-04-03T22:31:13.421Z,21.08
2023-04-03T22:33:58.877Z,21.08
2023-04-03T22:36:44.168Z,21.08
2023-04-03T22:39:29.511Z,21.08
2023-04-03T22:42:14.726Z,21.08
2023-04-03T22:44:59.844Z,21.08
2023-04-03T22:47:45.175Z,21.09
2023-04-03T22:50:30.451Z,21.08
2023-04-03T22:53:16.019Z,21.08
2023-04-03T22:56:03.249Z,21.09
2023-04-03T22:58:48.450Z,21.09
2023-04-03T23:01:33.998Z,21.08
2023-04-03T23:04:20.106Z,21.07
2023-04-03T23:07:05.406Z,21.08
2023-04-03T23:09:50.746Z,21.09
2023-04-03T23:12:42.248Z,21.09
2023-04-03T23:15:27.757Z,21.08
2023-04-03T23:18:13.022Z,21.08
2023-04-03T23:21:03.687Z,21.08
2023-04-03T23:23:49.434Z,21.08
2023-04-03T23:26:34.794Z,21.07
2023-04-03T23:29:20.027Z,21.07
2023-04-03T23:32:05.978Z,21.06
2023-04-03T23:34:51.469Z,21.07
2023-04-03T23:37:36.966Z,21.06
2023-04-03T23:40:22.646Z,21.05
2023-04-03T23:43:08.005Z,21.07
2023-04-03T23:45:54.325Z,21.06
2023-04-03T23:48:39.554Z,21.07
2023-04-03T23:51:24.768Z,21.06
2023-04-03T23:54:10.354Z,21.06
2023-04-03T23:56:56.570Z,21.06
2023-04-03T23:59:42.125Z,21.05
